This is the latest recevied weather packets stored in our database for station/object KD4IZ-13. If no packets are shown the sender has not sent any weather packets the latest 10 day(s).
| Time | Temp. | Humidity | Pressure | Rain* | Wind** | Luminosity | Snow |
|---|---|---|---|---|---|---|---|
| 1778083335 | 15° C | 99% | 1010.5 hPa | 0 mm | - | 85 W/m² | - |
| 1778083034 | 15° C | 99% | 1010.4 hPa | 0 mm | - | 76 W/m² | - |
| 1778082730 | 15° C | 99% | 1010.3 hPa | 0 mm | - | 122 W/m² | - |
| 1778081592 | 15° C | 99% | 1010.4 hPa | 0 mm | - | 156 W/m² | - |
| 1778081289 | 15° C | 99% | 1010.3 hPa | 0 mm | - | 162 W/m² | - |
| 1778080986 | 15° C | 99% | 1010.6 hPa | 1.27 mm | - | 136 W/m² | - |
| 1778080685 | 15° C | 99% | 1010.7 hPa | 1.78 mm | - | 99 W/m² | - |
| 1778080381 | 15° C | 99% | 1010.8 hPa | 3.05 mm | - | 116 W/m² | - |
| 1778080078 | 15° C | 99% | 1010.8 hPa | 3.05 mm | - | 78 W/m² | - |
| 1778079775 | 15° C | 99% | 1011.1 hPa | 1.78 mm | - | 32 W/m² | - |
| 1778079472 | 15° C | 99% | 1011.4 hPa | 1.27 mm | - | 37 W/m² | - |
| 1778079168 | 15° C | 99% | 1011.1 hPa | 3.05 mm | - | 57 W/m² | - |
| 1778078866 | 15° C | 99% | 1010.9 hPa | 1.78 mm | - | 57 W/m² | - |
| 1778078563 | 15° C | 99% | 1010.9 hPa | 0 mm | - | 63 W/m² | - |
| 1778078260 | 15° C | 99% | 1010.9 hPa | 0 mm | - | 46 W/m² | - |
| 1778077958 | 15° C | 99% | 1011.1 hPa | 0 mm | - | 57 W/m² | - |
| 1778077656 | 15.56° C | 99% | 1010.5 hPa | 1.27 mm | - | 84 W/m² | - |
| 1778077354 | 15.56° C | 99% | 1011 hPa | 1.27 mm | - | 61 W/m² | - |
| 1778077052 | 15.56° C | 99% | 1010.7 hPa | 0 mm | - | 96 W/m² | - |
| 1778076750 | 15.56° C | 99% | 1010.6 hPa | 0 mm | - | 128 W/m² | - |
| 1778076447 | 15.56° C | 99% | 1010.4 hPa | 1.78 mm | - | 139 W/m² | - |
| 1778076144 | 15.56° C | 99% | 1010.8 hPa | 1.78 mm | - | 114 W/m² | - |
| 1778075840 | 15.56° C | 99% | 1010.9 hPa | 1.27 mm | - | 72 W/m² | - |
| 1778075537 | 15.56° C | 99% | 1011.1 hPa | 1.27 mm | - | 84 W/m² | - |
| 1778075234 | 15.56° C | 99% | 1011.3 hPa | 1.78 mm | - | 98 W/m² | - |
* Rain latest hour (hover to see other rain measurements)
** Current wind speed in m/s (hover to see current wind gust speed)